Vancouver International Airport
CYVR : now visible

Airfield :











YOU CAN JOIN US ON...

 
LOGIN :

Register | Disclaimer

   EN    FR    IT 

 









Legend :    VFR   Marginal VFR   IFR   Intensive IFR   Very Intensive IFR
Visi :
Ceiling :
>= 8 km
>= 3000ft
5 to 8 km
1000 to 3000 ft
1500m to 5 km
500 to 1000 ft
800 to 1500m
200 to 500 ft
< 800m
< 200 ft
Symbols :   Thunderstorms  Fog  Heavy snow  Heavy precipitations  Wind > 20 kt






- Airport Elevation : 14 ft
- IATA code : YVR


CYVR - Vancouver International

CURRENT METAR :
  • 280400Z 26004KT 230V290 20SM FEW100 BKN140 OVC210 12/11 A3010 RMK AC1AS5CS2 SLP194

EXPIRED METARs :
  • 280300Z 29005KT 20SM OVC120 13/12 A3011 RMK AS8 SLP197
  • 280200Z 12005KT 20SM FEW100 OVC120 15/10 A3012 RMK AC1AS8 AC TR SLP201
  • 280100Z 10008KT 25SM FEW036 SCT130 SCT140 OVC180 16/09 A3013 RMK SC1AC3AC1AS4 SC TR SLP205
  • 280000Z VRB02KT 30SM FEW038 SCT075 OVC130 17/09 A3014 RMK SC1AC2AC5 SLP209

TAF TAF CYVR
Valid from the 28 at 03:00 until the 29 at 06:00 UTC


280240Z 2803/2906 VRB03KT P6SM FEW020 BKN060 OVC120
BECMG 2803/2805 32008KT
FM280600 32008KT P6SM SCT020 BKN040 OVC080
FM280900 32008KT P6SM SCT015 OVC030
TEMPO 2809/2812 P6SM -RA BKN015 OVC030
BECMG 2809/2811 VRB03KT
FM281200 24008KT 4SM -RA BR SCT008 OVC015
TEMPO 2812/2821 P6SM -RA SCT015 OVC030
FM282100 12007KT P6SM SCT020 BKN040 RMK NXT FCST BY 280600Z
CZVR FIR / North America



MET'MAP, your aeronautical weather chart ! - Copyright ORBIFLY December 2007 - Disclaimer

ORBIFLY MET'MAP TEAM :

Programming & Development : Alexandra Zaïnal
Original concept : Baudouin d'Aumeries
Technical & hardware support : Manuel Goepfert
Assistance : Marc-Olivier Méhu




SOURCES & CREDITS :

   NOAA       Earth
Advisory